Terminal Aerodrome Forecast
Issued by NWS

Home | Current Version | Previous Version | Text Only | Print | Product List | Glossary On
Versions: 1 2 3 4 5 6 7 8 9 10 11 12 13 14 15 16 17 18 19 20 21 22 23 24 25 26 27 28 29 30 31 32 33 34 35 36 37 38 39 40 41 42 43 44 45 46 47 48 49 50
000
FTUS43 KMKX 212322
TAFENW
TAF
KENW 212322Z 2200/2224 10008KT 6SM -SHRA BR VCTS SCT030CB BKN060
     FM220100 14006KT 3SM TSRA BR SCT008 SCT025 BKN035CB
      TEMPO 2202/2205 1 1/2SM +TSRA BR SCT008 SCT012 OVC025CB
     FM220500 12009KT 5SM SHRA BR SCT015 OVC035
      TEMPO 2205/2206 3SM TS BR SCT008 OVC015CB
     FM220600 11007KT 5SM -SHRA BR SCT008 OVC015
     FM220900 12007KT 4SM BR VCSH OVC008
     FM221500 08007KT 5SM BR BKN008
     FM221900 06008KT P6SM BKN050=

USA.gov is the U.S. government's official web portal to all federal, state and local government web resources and services.